createdAt,value
2023-04-10T00:00:01.832Z,16.85
2023-04-10T00:02:33.693Z,15.45
2023-04-10T00:05:02.670Z,14.55
2023-04-10T00:07:31.675Z,13.35
2023-04-10T00:10:00.389Z,14.60
2023-04-10T00:12:29.189Z,9.90
2023-04-10T00:14:59.459Z,10.88
2023-04-10T00:17:28.159Z,16.05
2023-04-10T00:19:56.842Z,10.40
2023-04-10T00:22:25.760Z,13.05
2023-04-10T00:24:54.486Z,11.70
2023-04-10T00:27:23.149Z,10.63
2023-04-10T00:29:52.084Z,12.70
2023-04-10T00:32:22.556Z,13.93
2023-04-10T00:34:53.127Z,19.55
2023-04-10T00:37:21.862Z,13.95
2023-04-10T00:39:50.776Z,12.02
2023-04-10T00:42:19.377Z,18.05
2023-04-10T00:44:48.194Z,15.35
2023-04-10T00:47:16.965Z,21.48
2023-04-10T00:49:47.123Z,13.55
2023-04-10T00:52:15.786Z,15.02
2023-04-10T00:54:45.218Z,11.93
2023-04-10T00:57:14.097Z,10.20
2023-04-10T00:59:43.721Z,15.13
2023-04-10T01:02:13.284Z,17.73
2023-04-10T01:04:42.729Z,15.00
2023-04-10T01:07:17.841Z,15.18
2023-04-10T01:09:49.414Z,19.23
2023-04-10T01:12:25.438Z,10.57
2023-04-10T01:14:58.907Z,11.23
2023-04-10T01:17:30.862Z,10.27
2023-04-10T01:20:01.420Z,13.88
2023-04-10T01:22:36.216Z,18.55
2023-04-10T01:25:19.555Z,13.25
2023-04-10T01:27:51.942Z,13.07
2023-04-10T01:30:22.799Z,17.55
2023-04-10T01:32:52.510Z,14.70
2023-04-10T01:35:21.685Z,17.75
2023-04-10T01:37:51.302Z,11.93
2023-04-10T01:40:21.397Z,14.57
2023-04-10T01:42:53.761Z,14.55
2023-04-10T01:45:29.397Z,13.20
2023-04-10T01:47:58.313Z,12.38
2023-04-10T01:50:28.652Z,17.98
2023-04-10T01:52:58.477Z,12.05
2023-04-10T01:55:29.587Z,14.23
2023-04-10T01:58:05.131Z,13.07
2023-04-10T02:00:41.714Z,9.43
2023-04-10T02:03:11.457Z,11.27
2023-04-10T02:05:46.172Z,13.90
2023-04-10T02:08:17.382Z,14.07
2023-04-10T02:10:53.328Z,13.68
2023-04-10T02:13:23.387Z,10.82
2023-04-10T02:15:53.515Z,12.82
2023-04-10T02:18:23.940Z,10.27
2023-04-10T02:20:52.762Z,16.42
2023-04-10T02:23:21.970Z,9.57
2023-04-10T02:25:50.622Z,8.50
2023-04-10T02:28:19.630Z,11.00
2023-04-10T02:30:48.681Z,13.27
2023-04-10T02:33:18.872Z,15.15
2023-04-10T02:35:47.641Z,11.65
2023-04-10T02:38:17.493Z,13.80
2023-04-10T02:40:46.576Z,10.43
2023-04-10T02:43:16.873Z,11.35
2023-04-10T02:45:45.972Z,15.95
2023-04-10T02:48:21.744Z,15.32
2023-04-10T02:50:57.901Z,13.80
2023-04-10T02:53:27.281Z,14.40
2023-04-10T02:55:59.484Z,16.00
2023-04-10T02:58:30.508Z,12.13
2023-04-10T03:00:59.998Z,14.93
2023-04-10T03:03:43.270Z,13.45
2023-04-10T03:06:12.662Z,8.32
2023-04-10T03:08:43.761Z,12.45
2023-04-10T03:11:13.300Z,10.70
2023-04-10T03:13:42.064Z,11.70
2023-04-10T03:16:10.910Z,11.93
2023-04-10T03:18:40.177Z,12.50
2023-04-10T03:21:10.507Z,11.50
2023-04-10T03:23:39.212Z,13.60
2023-04-10T03:26:08.634Z,12.07
2023-04-10T03:28:41.425Z,12.70
2023-04-10T03:31:12.610Z,10.00
2023-04-10T03:33:43.734Z,11.77
2023-04-10T03:36:13.954Z,11.20
2023-04-10T03:38:42.687Z,15.48
2023-04-10T03:41:11.565Z,9.93
2023-04-10T03:43:41.235Z,8.10
2023-04-10T03:46:10.386Z,15.45
2023-04-10T03:48:43.766Z,14.13
2023-04-10T03:51:13.948Z,16.27
2023-04-10T03:53:42.817Z,13.93
2023-04-10T03:56:16.544Z,9.75
2023-04-10T03:58:45.952Z,13.55
2023-04-10T04:01:16.001Z,10.70
2023-04-10T04:03:59.698Z,16.17
2023-04-10T04:06:49.607Z,16.45
2023-04-10T04:09:44.606Z,9.00
2023-04-10T04:12:21.389Z,9.30
2023-04-10T04:14:50.009Z,13.98
2023-04-10T04:17:37.822Z,7.30
2023-04-10T04:20:07.114Z,13.30
2023-04-10T04:22:51.041Z,13.13
2023-04-10T04:25:38.628Z,12.48
2023-04-10T04:28:07.421Z,11.13
2023-04-10T04:31:11.385Z,13.43
2023-04-10T04:33:52.157Z,15.85
2023-04-10T04:36:44.354Z,10.38
2023-04-10T04:39:23.211Z,9.15
2023-04-10T04:42:10.588Z,11.10
2023-04-10T04:44:42.180Z,15.90
2023-04-10T04:47:49.416Z,19.40
2023-04-10T04:50:56.681Z,13.40
2023-04-10T04:53:54.646Z,9.63
2023-04-10T04:56:43.670Z,12.43
2023-04-10T04:59:30.895Z,11.82
2023-04-10T05:02:25.224Z,14.18
2023-04-10T05:05:23.057Z,13.40
2023-04-10T05:08:12.033Z,6.55
2023-04-10T05:10:48.357Z,13.52
2023-04-10T05:13:56.637Z,10.18
2023-04-10T05:16:40.264Z,8.70
2023-04-10T05:19:21.089Z,9.38
2023-04-10T05:22:08.169Z,8.15
2023-04-10T05:24:45.670Z,8.18
2023-04-10T05:27:26.985Z,9.20
2023-04-10T05:30:09.841Z,10.48
2023-04-10T05:32:58.308Z,6.82
2023-04-10T05:35:44.993Z,8.60
2023-04-10T05:38:24.689Z,9.90
2023-04-10T05:41:14.563Z,7.25
2023-04-10T05:44:03.495Z,7.32
2023-04-10T05:46:59.838Z,10.93
2023-04-10T05:49:40.515Z,10.82
2023-04-10T05:52:22.980Z,6.65
2023-04-10T05:55:06.530Z,9.02
2023-04-10T05:57:54.426Z,9.90
2023-04-10T06:00:50.083Z,8.88
2023-04-10T06:03:43.739Z,10.30
2023-04-10T06:06:13.673Z,8.13
2023-04-10T06:08:42.672Z,5.78
2023-04-10T06:11:11.586Z,7.47
2023-04-10T06:13:41.148Z,11.50
2023-04-10T06:16:10.505Z,11.45
2023-04-10T06:18:40.549Z,15.63
2023-04-10T06:21:11.039Z,7.63
2023-04-10T06:23:41.030Z,13.68
2023-04-10T06:26:09.791Z,5.68
2023-04-10T06:28:39.211Z,9.13
2023-04-10T06:31:08.543Z,5.80
2023-04-10T06:33:39.467Z,10.80
2023-04-10T06:36:11.700Z,5.38
2023-04-10T06:38:46.679Z,9.35
2023-04-10T06:41:15.844Z,7.32
2023-04-10T06:43:46.022Z,8.35
2023-04-10T06:46:16.184Z,7.65
2023-04-10T06:48:45.025Z,7.90
2023-04-10T06:51:15.568Z,7.28
2023-04-10T06:53:44.419Z,5.88
2023-04-10T06:56:13.145Z,3.72
2023-04-10T06:58:41.833Z,4.10
2023-04-10T07:01:10.575Z,3.85
2023-04-10T07:03:39.262Z,3.97
2023-04-10T07:06:08.427Z,6.40
2023-04-10T07:08:38.501Z,3.80
2023-04-10T07:11:07.372Z,6.28
2023-04-10T07:13:38.871Z,5.38
2023-04-10T07:16:08.785Z,6.80
2023-04-10T07:18:39.083Z,3.10
2023-04-10T07:21:12.463Z,4.88
2023-04-10T07:23:42.604Z,4.05
2023-04-10T07:26:11.685Z,2.50
2023-04-10T07:28:40.492Z,4.72
2023-04-10T07:31:10.654Z,3.53
2023-04-10T07:33:40.067Z,2.60
2023-04-10T07:36:09.398Z,3.00
2023-04-10T07:38:38.796Z,4.25
2023-04-10T07:41:09.806Z,3.38
2023-04-10T07:43:38.435Z,6.07
2023-04-10T07:46:07.612Z,3.40
2023-04-10T07:48:36.664Z,12.48
2023-04-10T07:51:05.616Z,4.30
2023-04-10T07:53:34.387Z,3.53
2023-04-10T07:56:03.107Z,1.80
2023-04-10T07:58:33.436Z,3.42
2023-04-10T08:01:02.169Z,9.07
2023-04-10T08:03:31.161Z,4.30
2023-04-10T08:06:00.021Z,7.20
2023-04-10T08:08:28.756Z,3.40
2023-04-10T08:10:57.417Z,1.30
2023-04-10T08:13:26.180Z,2.67
2023-04-10T08:15:56.192Z,3.10
2023-04-10T08:18:24.926Z,5.68
2023-04-10T08:20:53.631Z,2.42
2023-04-10T08:23:22.254Z,2.17
2023-04-10T08:25:51.737Z,2.20
2023-04-10T08:28:21.385Z,5.00
2023-04-10T08:30:50.045Z,6.78
2023-04-10T08:33:20.101Z,4.25
2023-04-10T08:35:49.512Z,4.38
2023-04-10T08:38:18.118Z,1.30
2023-04-10T08:40:46.813Z,10.13
2023-04-10T08:43:15.783Z,2.67
2023-04-10T08:45:44.439Z,3.55
2023-04-10T08:48:13.200Z,6.82
2023-04-10T08:50:47.302Z,8.45
2023-04-10T08:53:16.702Z,4.72
2023-04-10T08:55:46.142Z,1.67
2023-04-10T08:58:14.872Z,3.70
2023-04-10T09:00:43.641Z,2.08
2023-04-10T09:03:14.279Z,2.58
2023-04-10T09:05:44.657Z,3.83
2023-04-10T09:08:13.680Z,4.35
2023-04-10T09:10:42.471Z,1.95
2023-04-10T09:13:11.208Z,10.70
2023-04-10T09:15:58.497Z,1.77
2023-04-10T09:18:42.000Z,1.65
2023-04-10T09:21:13.003Z,1.65
2023-04-10T09:23:42.982Z,0.95
2023-04-10T09:26:25.094Z,3.45
2023-04-10T09:29:01.559Z,2.25
2023-04-10T09:31:32.132Z,2.22
2023-04-10T09:34:11.383Z,14.02
2023-04-10T09:36:42.422Z,2.60
2023-04-10T09:39:11.750Z,1.50
2023-04-10T09:41:53.304Z,1.17
2023-04-10T09:44:31.025Z,2.05
2023-04-10T09:46:59.933Z,3.00
2023-04-10T09:49:28.774Z,4.13
2023-04-10T09:51:58.986Z,3.05
2023-04-10T09:54:38.182Z,13.75
2023-04-10T09:57:08.334Z,1.38
2023-04-10T09:59:40.641Z,5.40
2023-04-10T10:02:11.135Z,1.10
2023-04-10T10:04:41.200Z,4.05
2023-04-10T10:07:11.497Z,1.25
2023-04-10T10:09:40.290Z,1.35
2023-04-10T10:12:09.890Z,1.23
2023-04-10T10:14:40.631Z,2.95
2023-04-10T10:17:13.459Z,1.10
2023-04-10T10:19:44.810Z,2.47
2023-04-10T10:22:15.229Z,4.93
2023-04-10T10:24:47.372Z,2.15
2023-04-10T10:27:17.109Z,1.70
2023-04-10T10:29:46.253Z,13.18
2023-04-10T10:32:15.279Z,2.47
2023-04-10T10:34:44.042Z,3.10
2023-04-10T10:37:13.391Z,2.75
2023-04-10T10:39:49.892Z,3.08
2023-04-10T10:42:22.586Z,2.33
2023-04-10T10:44:54.702Z,2.72
2023-04-10T10:47:27.210Z,4.20
2023-04-10T10:49:57.412Z,4.60
2023-04-10T10:52:39.378Z,1.10
2023-04-10T10:55:27.486Z,2.85
2023-04-10T10:57:59.378Z,6.13
2023-04-10T11:00:28.374Z,3.22
2023-04-10T11:03:16.403Z,2.50
2023-04-10T11:05:52.222Z,2.33
2023-04-10T11:08:36.968Z,1.88
2023-04-10T11:11:07.384Z,2.88
2023-04-10T11:13:38.489Z,2.47
2023-04-10T11:16:08.194Z,1.63
2023-04-10T11:19:06.334Z,3.50
2023-04-10T11:22:00.825Z,2.67
2023-04-10T11:24:29.967Z,4.93
2023-04-10T11:26:58.703Z,1.30
2023-04-10T11:29:38.147Z,3.42
2023-04-10T11:32:07.087Z,8.32
2023-04-10T11:34:36.475Z,7.72
2023-04-10T11:37:05.340Z,1.50
2023-04-10T11:39:33.944Z,3.92
2023-04-10T11:42:02.914Z,1.98
2023-04-10T11:44:35.221Z,1.25
2023-04-10T11:47:08.662Z,2.75
2023-04-10T11:49:37.364Z,11.50
2023-04-10T11:52:06.279Z,3.80
2023-04-10T11:54:35.358Z,2.42
2023-04-10T11:57:05.310Z,2.20
2023-04-10T11:59:34.757Z,2.45
2023-04-10T12:02:09.718Z,1.65
2023-04-10T12:04:40.232Z,2.72
2023-04-10T12:07:09.389Z,1.83
2023-04-10T12:09:38.444Z,4.65
2023-04-10T12:12:08.470Z,1.55
2023-04-10T12:14:38.257Z,3.25
2023-04-10T12:17:09.022Z,2.80
2023-04-10T12:19:40.030Z,2.00
2023-04-10T12:22:13.865Z,3.47
2023-04-10T12:24:43.555Z,2.03
2023-04-10T12:27:18.248Z,1.80
2023-04-10T12:29:47.546Z,1.27
2023-04-10T12:32:17.851Z,2.25
2023-04-10T12:34:51.929Z,11.15
2023-04-10T12:37:20.862Z,1.30
2023-04-10T12:39:49.932Z,2.70
2023-04-10T12:42:19.673Z,2.70
2023-04-10T12:44:55.350Z,4.45
2023-04-10T12:47:26.205Z,4.35
2023-04-10T12:50:11.398Z,15.25
2023-04-10T12:52:41.253Z,1.45
2023-04-10T12:55:11.969Z,6.90
2023-04-10T12:57:41.461Z,2.28
2023-04-10T13:00:11.061Z,2.25
2023-04-10T13:02:45.902Z,7.63
2023-04-10T13:05:14.813Z,1.27
2023-04-10T13:07:44.013Z,4.47
2023-04-10T13:10:12.870Z,1.85
2023-04-10T13:12:42.110Z,3.63
2023-04-10T13:15:11.897Z,10.02
2023-04-10T13:17:42.028Z,2.25
2023-04-10T13:20:11.853Z,2.65
2023-04-10T13:22:40.602Z,2.20
2023-04-10T13:25:09.575Z,3.38
2023-04-10T13:27:38.305Z,0.88
2023-04-10T13:30:07.565Z,2.00
2023-04-10T13:32:36.372Z,4.55
2023-04-10T13:35:06.915Z,1.65
2023-04-10T13:37:35.727Z,9.23
2023-04-10T13:40:05.217Z,3.50
2023-04-10T13:42:35.412Z,2.17
2023-04-10T13:45:05.638Z,8.57
2023-04-10T13:47:34.279Z,1.77
2023-04-10T13:50:03.058Z,2.45
2023-04-10T13:52:33.165Z,1.30
2023-04-10T13:55:01.842Z,0.80
2023-04-10T13:57:30.542Z,10.23
2023-04-10T13:59:59.438Z,1.75
2023-04-10T14:02:28.288Z,1.27
2023-04-10T14:04:57.030Z,8.32
2023-04-10T14:07:25.768Z,2.88
2023-04-10T14:09:56.219Z,3.13
2023-04-10T14:12:25.254Z,2.20
2023-04-10T14:14:53.889Z,1.38
2023-04-10T14:17:22.764Z,1.33
2023-04-10T14:19:53.672Z,1.45
2023-04-10T14:22:22.345Z,2.47
2023-04-10T14:24:52.568Z,0.90
2023-04-10T14:27:26.499Z,1.15
2023-04-10T14:29:55.834Z,1.02
2023-04-10T14:32:24.681Z,4.10
2023-04-10T14:34:53.372Z,2.85
2023-04-10T14:37:22.467Z,7.68
2023-04-10T14:39:51.236Z,8.20
2023-04-10T14:42:19.976Z,2.95
2023-04-10T14:44:50.028Z,7.57
2023-04-10T14:47:18.939Z,1.60
2023-04-10T14:49:47.638Z,3.20
2023-04-10T14:52:16.304Z,4.63
2023-04-10T14:54:45.010Z,3.13
2023-04-10T14:57:15.123Z,2.38
2023-04-10T14:59:44.070Z,4.07
2023-04-10T15:02:14.128Z,1.42
2023-04-10T15:04:42.820Z,6.28
2023-04-10T15:07:11.576Z,4.65
2023-04-10T15:09:40.653Z,3.17
2023-04-10T15:12:09.564Z,3.33
2023-04-10T15:14:38.482Z,9.57
2023-04-10T15:17:07.227Z,5.25
2023-04-10T15:19:37.322Z,2.95
2023-04-10T15:22:06.026Z,6.85
2023-04-10T15:24:47.090Z,2.08
2023-04-10T15:27:21.460Z,9.18
2023-04-10T15:29:50.278Z,2.97
2023-04-10T15:32:19.084Z,9.55
2023-04-10T15:34:49.446Z,4.97
2023-04-10T15:37:18.158Z,5.10
2023-04-10T15:39:46.888Z,10.00
2023-04-10T15:42:16.777Z,6.32
2023-04-10T15:44:49.025Z,8.95
2023-04-10T15:47:17.951Z,2.10
2023-04-10T15:49:46.702Z,2.80
2023-04-10T15:52:16.794Z,4.80
2023-04-10T15:54:45.723Z,3.88
2023-04-10T15:57:14.443Z,8.38
2023-04-10T15:59:43.110Z,4.10
2023-04-10T16:02:11.932Z,2.17
2023-04-10T16:04:41.320Z,4.78
2023-04-10T16:07:10.285Z,2.65
2023-04-10T16:09:40.482Z,4.75
2023-04-10T16:12:09.163Z,3.08
2023-04-10T16:14:37.977Z,4.40
2023-04-10T16:17:06.650Z,4.25
2023-04-10T16:19:35.338Z,1.92
2023-04-10T16:22:04.135Z,3.00
2023-04-10T16:24:33.309Z,3.15
2023-04-10T16:27:03.513Z,4.30
2023-04-10T16:29:32.233Z,1.98
2023-04-10T16:32:01.087Z,4.53
2023-04-10T16:34:29.853Z,9.57
2023-04-10T16:36:58.635Z,5.28
2023-04-10T16:39:27.297Z,2.65
2023-04-10T16:41:56.054Z,6.57
2023-04-10T16:44:26.173Z,2.85
2023-04-10T16:46:54.919Z,3.28
2023-04-10T16:49:24.519Z,3.22
2023-04-10T16:51:53.433Z,3.10
2023-04-10T16:54:22.068Z,3.75
2023-04-10T16:56:50.803Z,4.10
2023-04-10T16:59:19.544Z,4.88
2023-04-10T17:01:49.566Z,5.47
2023-04-10T17:04:20.079Z,4.25
2023-04-10T17:06:49.125Z,9.55
2023-04-10T17:09:17.758Z,3.55
2023-04-10T17:11:46.502Z,4.30
2023-04-10T17:14:16.097Z,5.07
2023-04-10T17:16:45.832Z,4.35
2023-04-10T17:19:17.562Z,4.35
2023-04-10T17:21:46.898Z,4.05
2023-04-10T17:24:17.387Z,4.97
2023-04-10T17:26:46.210Z,7.05
2023-04-10T17:29:14.965Z,4.60
2023-04-10T17:31:43.681Z,3.25
2023-04-10T17:34:12.331Z,4.00
2023-04-10T17:36:42.760Z,3.42
2023-04-10T17:39:11.439Z,3.47
2023-04-10T17:41:40.731Z,3.75
2023-04-10T17:44:10.667Z,3.22
2023-04-10T17:46:39.461Z,4.00
2023-04-10T17:49:08.354Z,8.27
2023-04-10T17:51:37.190Z,5.35
2023-04-10T17:54:07.234Z,8.30
2023-04-10T17:56:36.039Z,7.57
2023-04-10T17:59:04.859Z,10.30
2023-04-10T18:01:33.966Z,6.40
2023-04-10T18:04:02.895Z,7.07
2023-04-10T18:06:31.725Z,5.78
2023-04-10T18:09:00.435Z,5.57
2023-04-10T18:11:30.513Z,9.07
2023-04-10T18:13:59.161Z,3.92
2023-04-10T18:16:27.900Z,5.72
2023-04-10T18:18:56.877Z,6.88
2023-04-10T18:21:27.187Z,7.15
2023-04-10T18:23:55.947Z,6.93
2023-04-10T18:26:24.631Z,8.20
2023-04-10T18:28:54.878Z,10.52
2023-04-10T18:31:23.905Z,3.45
2023-04-10T18:34:06.604Z,3.00
2023-04-10T18:36:36.860Z,5.40
2023-04-10T18:39:07.098Z,7.22
2023-04-10T18:41:36.496Z,2.70
2023-04-10T18:44:06.936Z,7.78
2023-04-10T18:46:36.092Z,6.43
2023-04-10T18:49:04.977Z,2.83
2023-04-10T18:51:35.376Z,6.53
2023-04-10T18:54:04.274Z,7.22
2023-04-10T18:56:35.457Z,4.35
2023-04-10T18:59:04.362Z,6.13
2023-04-10T19:01:35.119Z,4.10
2023-04-10T19:04:04.517Z,5.70
2023-04-10T19:06:33.482Z,4.63
2023-04-10T19:09:02.179Z,9.13
2023-04-10T19:11:30.895Z,3.35
2023-04-10T19:13:59.670Z,6.68
2023-04-10T19:16:28.458Z,9.20
2023-04-10T19:18:58.643Z,6.57
2023-04-10T19:21:27.851Z,9.18
2023-04-10T19:23:56.559Z,4.90
2023-04-10T19:26:25.544Z,8.18
2023-04-10T19:28:55.192Z,6.30
2023-04-10T19:31:27.589Z,3.17
2023-04-10T19:33:57.872Z,3.67
2023-04-10T19:36:28.917Z,7.22
2023-04-10T19:38:57.906Z,12.85
2023-04-10T19:41:27.911Z,7.32
2023-04-10T19:43:56.868Z,12.30
2023-04-10T19:46:25.804Z,9.20
2023-04-10T19:48:55.080Z,9.93
2023-04-10T19:51:25.561Z,18.30
2023-04-10T19:53:55.789Z,10.15
2023-04-10T19:56:24.891Z,8.82
2023-04-10T19:58:53.579Z,5.50
2023-04-10T20:01:25.282Z,6.30
2023-04-10T20:03:55.973Z,5.00
2023-04-10T20:06:27.236Z,8.18
2023-04-10T20:08:56.183Z,8.70
2023-04-10T20:11:30.485Z,6.57
2023-04-10T20:13:59.392Z,5.25
2023-04-10T20:16:28.161Z,4.78
2023-04-10T20:18:57.074Z,4.75
2023-04-10T20:21:27.750Z,3.80
2023-04-10T20:23:59.793Z,5.72
2023-04-10T20:26:28.762Z,5.10
2023-04-10T20:28:58.042Z,4.10
2023-04-10T20:31:27.015Z,4.80
2023-04-10T20:33:55.774Z,4.05
2023-04-10T20:36:24.410Z,3.70
2023-04-10T20:38:56.086Z,4.43
2023-04-10T20:41:26.330Z,6.47
2023-04-10T20:43:55.985Z,3.83
2023-04-10T20:46:27.122Z,3.47
2023-04-10T20:48:57.017Z,7.43
2023-04-10T20:51:27.112Z,3.47
2023-04-10T20:53:57.269Z,5.40
2023-04-10T20:56:33.301Z,4.15
2023-04-10T20:59:09.249Z,4.45
2023-04-10T21:01:38.591Z,3.55
2023-04-10T21:04:07.545Z,4.15
2023-04-10T21:06:36.230Z,4.40
2023-04-10T21:09:06.306Z,5.43
2023-04-10T21:11:35.052Z,5.13
2023-04-10T21:14:03.718Z,4.80
2023-04-10T21:16:34.861Z,7.63
2023-04-10T21:19:03.577Z,4.28
2023-04-10T21:21:32.298Z,5.43
2023-04-10T21:24:01.118Z,6.30
2023-04-10T21:26:31.297Z,8.20
2023-04-10T21:28:59.928Z,6.20
2023-04-10T21:31:28.745Z,5.13
2023-04-10T21:33:57.395Z,3.70
2023-04-10T21:36:26.479Z,3.30
2023-04-10T21:38:55.424Z,8.13
2023-04-10T21:41:24.398Z,3.28
2023-04-10T21:43:56.464Z,3.55
2023-04-10T21:46:25.411Z,5.97
2023-04-10T21:48:54.417Z,3.92
2023-04-10T21:51:24.676Z,6.38
2023-04-10T21:53:54.990Z,3.95
2023-04-10T21:56:23.636Z,4.28
2023-04-10T21:58:54.130Z,8.40
2023-04-10T22:01:23.010Z,3.33
2023-04-10T22:03:53.314Z,4.03
2023-04-10T22:06:22.057Z,4.28
2023-04-10T22:08:50.663Z,4.53
2023-04-10T22:11:19.359Z,5.72
2023-04-10T22:13:48.123Z,3.05
2023-04-10T22:16:18.199Z,3.13
2023-04-10T22:18:47.292Z,7.10
2023-04-10T22:21:15.975Z,4.22
2023-04-10T22:23:44.725Z,3.65
2023-04-10T22:26:13.406Z,3.85
2023-04-10T22:28:42.157Z,3.15
2023-04-10T22:31:16.623Z,4.13
2023-04-10T22:33:46.756Z,4.18
2023-04-10T22:36:15.481Z,4.10
2023-04-10T22:38:44.193Z,4.10
2023-04-10T22:41:12.917Z,4.07
2023-04-10T22:43:41.672Z,3.53
2023-04-10T22:46:11.050Z,4.47
2023-04-10T22:48:39.787Z,3.28
2023-04-10T22:51:13.295Z,3.35
2023-04-10T22:53:42.121Z,4.20
2023-04-10T22:56:11.666Z,5.07
2023-04-10T22:58:41.155Z,4.80
2023-04-10T23:01:13.434Z,4.03
2023-04-10T23:03:42.542Z,6.75
2023-04-10T23:06:12.934Z,6.30
2023-04-10T23:08:41.610Z,6.57
2023-04-10T23:11:10.399Z,4.78
2023-04-10T23:13:39.109Z,4.85
2023-04-10T23:16:08.307Z,7.72
2023-04-10T23:18:37.668Z,6.80
2023-04-10T23:21:07.596Z,4.13
2023-04-10T23:23:37.733Z,5.57
2023-04-10T23:26:06.628Z,5.65
2023-04-10T23:28:35.356Z,6.05
2023-04-10T23:31:04.207Z,3.58
2023-04-10T23:33:32.959Z,3.30
2023-04-10T23:36:01.786Z,3.85
2023-04-10T23:38:30.545Z,5.60
2023-04-10T23:41:02.921Z,7.68
2023-04-10T23:43:32.014Z,3.65
2023-04-10T23:46:00.881Z,4.18
2023-04-10T23:48:29.529Z,4.57
2023-04-10T23:51:05.188Z,4.05
2023-04-10T23:53:34.087Z,3.95
2023-04-10T23:56:04.245Z,4.70
2023-04-10T23:58:32.920Z,6.10
